Corpus Christi, TX

9:11 AM CDT on May 25, 2015 (GMT -0500)
Texas State Aquarium | | Change Station
CLOSE
Current Station
Personal Weather Station
Location: Corpus Christi, TX
Elevation: 36 ft
Nearby Weather Stations

Elev 36 ft 27.81 °N, 97.39 °W | Updated 10 seconds ago

Partly Cloudy
Partly Cloudy
81.8 °F
Feels Like 92 °F
N
12.1
Wind Variable Wind from ESE
Gusts 12.1 mph

Today
High -- | Low -- °F
--% Chance of Precip.
Yesterday
High -- | Low -- °F
Precip. -- in
6:35 AM 8:17 PM
Waxing Crescent, 49% visible
Pressure 29.87 in
Visibility 10.0 miles
Clouds Scattered Clouds 1700 ft
Mostly Cloudy 2300 ft
Mostly Cloudy 8500 ft
Mostly Cloudy 25000 ft
Heat Index 92 °F
Dew Point 80 °F
Humidity 94%
Rainfall 0.00 in
Snow Depth Not available.
UV 0.0 out of 12
Pollen 6.50 out of 12
Air Quality Not available.
Flu Activity Sporadic
SPECI KCRP 251401Z 14019KT 10SM SCT017 BKN023 BKN085 BKN250 28/23 A2987 RMK AO2 T02780233

More Conditions Fewer Conditions

Pressure 29.87 in
Visibility 10.0 miles
Clouds Scattered Clouds 1700 ft
Mostly Cloudy 2300 ft
Mostly Cloudy 8500 ft
Mostly Cloudy 25000 ft
Heat Index 92 °F
Dew Point 80 °F
Humidity 94%
Rainfall 0.00 in
Snow Depth Not available.
UV 0.0 out of 12
Pollen 6.50 out of 12
Air Quality Not available.
Flu Activity Sporadic
SPECI KCRP 251401Z 14019KT 10SM SCT017 BKN023 BKN085 BKN250 28/23 A2987 RMK AO2 T02780233

More Conditions Fewer Conditions

10-Day Weather Forecast

Almanac

Astronomy

May. 25, 2015 Rise Set
Actual Time
Civil Twilight
Nautical Twilight
Astronomical Twilight
Moon
Length of Visible Light
Length of Day
Tomorrow will be .
, % of the Moon is Illuminated

Today's Extremes

State Highs State Lows

Community

WunderPhotos

Upload Photos

1,824,023 photos uploaded!

WunderBlogs® & News

Nearby

Air Quality

  Air Quality AQ Index Pollutant
Not available.

Snow Depth

Station Depth Elevation

Earthquake Activity

City Distance Mag. Time & Date
Minimum magnitude displayed is 2.5.

Coastal Water Temperatures

Place Temperature

Stations

Nearby Weather Stations

Station Location Temp. Windchill Dew Point Humidity Wind Precip. Elev Updated Type